sensor_id;sensor_type;location;lat;lon;timestamp;P1;durP1;ratioP1;P2;durP2;ratioP2
52386;SDS011;38317;53.084;6.960;2022-10-28T00:01:05;7.55;;;3.13;;
52386;SDS011;38317;53.084;6.960;2022-10-28T00:03:36;6.22;;;3.03;;
52386;SDS011;38317;53.084;6.960;2022-10-28T00:06:08;6.88;;;2.90;;
52386;SDS011;38317;53.084;6.960;2022-10-28T00:08:35;6.45;;;2.88;;
52386;SDS011;38317;53.084;6.960;2022-10-28T00:11:05;6.45;;;3.13;;
52386;SDS011;38317;53.084;6.960;2022-10-28T00:13:31;8.75;;;3.20;;
52386;SDS011;38317;53.084;6.960;2022-10-28T00:16:07;7.50;;;3.17;;
52386;SDS011;38317;53.084;6.960;2022-10-28T00:18:37;9.77;;;3.00;;
52386;SDS011;38317;53.084;6.960;2022-10-28T00:21:04;9.82;;;3.00;;
52386;SDS011;38317;53.084;6.960;2022-10-28T00:23:32;8.25;;;3.45;;
52386;SDS011;38317;53.084;6.960;2022-10-28T00:26:02;8.98;;;3.70;;
52386;SDS011;38317;53.084;6.960;2022-10-28T00:28:29;7.53;;;3.40;;
52386;SDS011;38317;53.084;6.960;2022-10-28T00:30:55;7.57;;;3.38;;
52386;SDS011;38317;53.084;6.960;2022-10-28T00:33:26;7.35;;;3.35;;
52386;SDS011;38317;53.084;6.960;2022-10-28T00:35:52;6.45;;;3.20;;
52386;SDS011;38317;53.084;6.960;2022-10-28T00:38:17;6.07;;;2.95;;
52386;SDS011;38317;53.084;6.960;2022-10-28T00:40:43;13.32;;;3.25;;
52386;SDS011;38317;53.084;6.960;2022-10-28T00:43:10;9.52;;;3.00;;
52386;SDS011;38317;53.084;6.960;2022-10-28T00:45:36;10.13;;;3.03;;
52386;SDS011;38317;53.084;6.960;2022-10-28T00:48:03;6.18;;;3.20;;
52386;SDS011;38317;53.084;6.960;2022-10-28T00:50:42;7.40;;;3.60;;
52386;SDS011;38317;53.084;6.960;2022-10-28T00:53:20;10.43;;;3.08;;
52386;SDS011;38317;53.084;6.960;2022-10-28T00:55:51;7.25;;;3.10;;
52386;SDS011;38317;53.084;6.960;2022-10-28T00:58:19;6.35;;;3.25;;
52386;SDS011;38317;53.084;6.960;2022-10-28T01:00:47;8.20;;;2.90;;
52386;SDS011;38317;53.084;6.960;2022-10-28T01:03:13;7.65;;;3.42;;
52386;SDS011;38317;53.084;6.960;2022-10-28T01:05:40;7.40;;;3.45;;
52386;SDS011;38317;53.084;6.960;2022-10-28T01:08:07;8.68;;;3.78;;
52386;SDS011;38317;53.084;6.960;2022-10-28T01:10:58;7.82;;;3.63;;
52386;SDS011;38317;53.084;6.960;2022-10-28T01:24:53;8.45;;;4.38;;
52386;SDS011;38317;53.084;6.960;2022-10-28T01:30:20;7.35;;;4.15;;
52386;SDS011;38317;53.084;6.960;2022-10-28T01:35:29;9.50;;;4.28;;
52386;SDS011;38317;53.084;6.960;2022-10-28T01:40:35;8.77;;;4.32;;
52386;SDS011;38317;53.084;6.960;2022-10-28T01:48:25;10.23;;;5.25;;
52386;SDS011;38317;53.084;6.960;2022-10-28T01:50:56;15.68;;;5.75;;
52386;SDS011;38317;53.084;6.960;2022-10-28T01:53:27;10.30;;;4.83;;
52386;SDS011;38317;53.084;6.960;2022-10-28T01:55:56;8.65;;;4.50;;
52386;SDS011;38317;53.084;6.960;2022-10-28T01:58:28;10.10;;;4.60;;
52386;SDS011;38317;53.084;6.960;2022-10-28T02:00:55;8.07;;;4.88;;
52386;SDS011;38317;53.084;6.960;2022-10-28T02:03:23;9.60;;;4.43;;
52386;SDS011;38317;53.084;6.960;2022-10-28T02:05:53;8.38;;;4.70;;
52386;SDS011;38317;53.084;6.960;2022-10-28T02:33:14;9.38;;;3.75;;
52386;SDS011;38317;53.084;6.960;2022-10-28T02:38:34;9.73;;;4.43;;
52386;SDS011;38317;53.084;6.960;2022-10-28T02:41:05;8.75;;;3.97;;
52386;SDS011;38317;53.084;6.960;2022-10-28T02:43:37;9.00;;;4.60;;
52386;SDS011;38317;53.084;6.960;2022-10-28T02:46:04;9.18;;;4.18;;
52386;SDS011;38317;53.084;6.960;2022-10-28T02:48:43;8.27;;;4.05;;
52386;SDS011;38317;53.084;6.960;2022-10-28T02:51:14;10.13;;;4.40;;
52386;SDS011;38317;53.084;6.960;2022-10-28T02:56:41;7.53;;;3.67;;
52386;SDS011;38317;53.084;6.960;2022-10-28T02:59:16;11.10;;;4.65;;
52386;SDS011;38317;53.084;6.960;2022-10-28T03:01:41;9.48;;;4.43;;
52386;SDS011;38317;53.084;6.960;2022-10-28T03:04:07;9.60;;;4.85;;
52386;SDS011;38317;53.084;6.960;2022-10-28T03:06:33;11.32;;;4.25;;
52386;SDS011;38317;53.084;6.960;2022-10-28T03:08:59;11.82;;;4.13;;
52386;SDS011;38317;53.084;6.960;2022-10-28T03:11:24;9.80;;;4.00;;
52386;SDS011;38317;53.084;6.960;2022-10-28T03:13:50;8.98;;;4.72;;
52386;SDS011;38317;53.084;6.960;2022-10-28T03:16:16;9.20;;;4.32;;
52386;SDS011;38317;53.084;6.960;2022-10-28T03:18:42;9.13;;;4.43;;
52386;SDS011;38317;53.084;6.960;2022-10-28T03:21:07;10.73;;;4.55;;
52386;SDS011;38317;53.084;6.960;2022-10-28T03:23:33;8.10;;;4.28;;
52386;SDS011;38317;53.084;6.960;2022-10-28T03:25:59;7.68;;;3.75;;
52386;SDS011;38317;53.084;6.960;2022-10-28T03:28:25;8.18;;;4.25;;
52386;SDS011;38317;53.084;6.960;2022-10-28T03:30:50;9.13;;;4.25;;
52386;SDS011;38317;53.084;6.960;2022-10-28T03:33:16;12.20;;;4.13;;
52386;SDS011;38317;53.084;6.960;2022-10-28T03:35:43;7.50;;;3.67;;
52386;SDS011;38317;53.084;6.960;2022-10-28T03:38:08;10.02;;;4.05;;
52386;SDS011;38317;53.084;6.960;2022-10-28T03:40:34;6.22;;;4.00;;
52386;SDS011;38317;53.084;6.960;2022-10-28T03:43:00;7.25;;;3.72;;
52386;SDS011;38317;53.084;6.960;2022-10-28T03:45:26;9.98;;;4.10;;
52386;SDS011;38317;53.084;6.960;2022-10-28T03:47:51;8.02;;;4.05;;
52386;SDS011;38317;53.084;6.960;2022-10-28T03:50:17;10.93;;;4.03;;
52386;SDS011;38317;53.084;6.960;2022-10-28T03:52:43;6.85;;;3.50;;
52386;SDS011;38317;53.084;6.960;2022-10-28T03:55:09;11.20;;;4.40;;
52386;SDS011;38317;53.084;6.960;2022-10-28T03:57:35;8.57;;;4.10;;
52386;SDS011;38317;53.084;6.960;2022-10-28T04:00:01;7.05;;;3.88;;
52386;SDS011;38317;53.084;6.960;2022-10-28T04:02:27;10.05;;;4.07;;
52386;SDS011;38317;53.084;6.960;2022-10-28T04:04:53;8.88;;;4.10;;
52386;SDS011;38317;53.084;6.960;2022-10-28T04:07:19;9.50;;;4.00;;
52386;SDS011;38317;53.084;6.960;2022-10-28T04:09:45;8.70;;;4.70;;
52386;SDS011;38317;53.084;6.960;2022-10-28T04:12:13;7.60;;;3.90;;
52386;SDS011;38317;53.084;6.960;2022-10-28T04:14:39;8.02;;;3.95;;
52386;SDS011;38317;53.084;6.960;2022-10-28T04:17:05;10.32;;;4.40;;
52386;SDS011;38317;53.084;6.960;2022-10-28T04:19:30;13.48;;;4.40;;
52386;SDS011;38317;53.084;6.960;2022-10-28T04:21:56;12.23;;;5.30;;
52386;SDS011;38317;53.084;6.960;2022-10-28T04:24:22;9.05;;;4.43;;
52386;SDS011;38317;53.084;6.960;2022-10-28T04:26:48;7.93;;;4.43;;
52386;SDS011;38317;53.084;6.960;2022-10-28T04:29:13;7.43;;;4.00;;
52386;SDS011;38317;53.084;6.960;2022-10-28T04:31:39;9.85;;;4.60;;
52386;SDS011;38317;53.084;6.960;2022-10-28T04:34:05;7.22;;;4.07;;
52386;SDS011;38317;53.084;6.960;2022-10-28T04:36:30;10.20;;;4.53;;
52386;SDS011;38317;53.084;6.960;2022-10-28T04:38:56;7.80;;;3.83;;
52386;SDS011;38317;53.084;6.960;2022-10-28T04:41:22;6.97;;;4.03;;
52386;SDS011;38317;53.084;6.960;2022-10-28T04:43:48;8.05;;;3.83;;
52386;SDS011;38317;53.084;6.960;2022-10-28T04:46:13;8.70;;;4.35;;
52386;SDS011;38317;53.084;6.960;2022-10-28T04:48:39;10.45;;;4.78;;
52386;SDS011;38317;53.084;6.960;2022-10-28T04:51:05;7.55;;;4.57;;
52386;SDS011;38317;53.084;6.960;2022-10-28T04:53:31;8.98;;;3.80;;
52386;SDS011;38317;53.084;6.960;2022-10-28T04:55:57;8.25;;;4.82;;
52386;SDS011;38317;53.084;6.960;2022-10-28T04:58:23;11.15;;;4.97;;
52386;SDS011;38317;53.084;6.960;2022-10-28T05:00:49;9.05;;;5.07;;
52386;SDS011;38317;53.084;6.960;2022-10-28T05:03:15;8.13;;;4.40;;
52386;SDS011;38317;53.084;6.960;2022-10-28T05:05:41;10.40;;;4.18;;
52386;SDS011;38317;53.084;6.960;2022-10-28T05:08:06;7.45;;;4.15;;
52386;SDS011;38317;53.084;6.960;2022-10-28T05:10:32;8.82;;;4.57;;
52386;SDS011;38317;53.084;6.960;2022-10-28T05:12:58;11.63;;;4.55;;
52386;SDS011;38317;53.084;6.960;2022-10-28T05:15:24;8.48;;;4.30;;
52386;SDS011;38317;53.084;6.960;2022-10-28T05:17:50;10.10;;;4.10;;
52386;SDS011;38317;53.084;6.960;2022-10-28T05:20:17;8.10;;;4.00;;
52386;SDS011;38317;53.084;6.960;2022-10-28T05:22:48;8.45;;;4.05;;
52386;SDS011;38317;53.084;6.960;2022-10-28T05:25:18;6.88;;;3.92;;
52386;SDS011;38317;53.084;6.960;2022-10-28T05:27:44;8.07;;;3.95;;
52386;SDS011;38317;53.084;6.960;2022-10-28T05:30:10;6.63;;;4.07;;
52386;SDS011;38317;53.084;6.960;2022-10-28T05:32:37;8.38;;;4.28;;
52386;SDS011;38317;53.084;6.960;2022-10-28T05:35:03;7.35;;;3.75;;
52386;SDS011;38317;53.084;6.960;2022-10-28T05:37:29;9.82;;;4.05;;
52386;SDS011;38317;53.084;6.960;2022-10-28T05:39:54;8.35;;;3.90;;
52386;SDS011;38317;53.084;6.960;2022-10-28T05:42:20;8.27;;;3.92;;
52386;SDS011;38317;53.084;6.960;2022-10-28T05:44:46;8.43;;;4.00;;
52386;SDS011;38317;53.084;6.960;2022-10-28T05:47:12;9.13;;;4.47;;
52386;SDS011;38317;53.084;6.960;2022-10-28T05:49:37;7.70;;;3.97;;
52386;SDS011;38317;53.084;6.960;2022-10-28T05:52:03;8.85;;;4.28;;
52386;SDS011;38317;53.084;6.960;2022-10-28T05:54:29;9.15;;;4.25;;
52386;SDS011;38317;53.084;6.960;2022-10-28T05:56:55;8.40;;;4.57;;
52386;SDS011;38317;53.084;6.960;2022-10-28T05:59:20;7.35;;;4.47;;
52386;SDS011;38317;53.084;6.960;2022-10-28T06:01:46;12.40;;;4.60;;
52386;SDS011;38317;53.084;6.960;2022-10-28T06:04:12;11.40;;;5.00;;
52386;SDS011;38317;53.084;6.960;2022-10-28T06:06:38;11.15;;;4.82;;
52386;SDS011;38317;53.084;6.960;2022-10-28T06:09:03;10.45;;;4.90;;
52386;SDS011;38317;53.084;6.960;2022-10-28T06:11:29;11.32;;;4.18;;
52386;SDS011;38317;53.084;6.960;2022-10-28T06:13:55;8.23;;;4.32;;
52386;SDS011;38317;53.084;6.960;2022-10-28T06:16:20;8.48;;;4.32;;
52386;SDS011;38317;53.084;6.960;2022-10-28T06:18:46;7.18;;;3.80;;
52386;SDS011;38317;53.084;6.960;2022-10-28T06:21:12;9.63;;;4.43;;
52386;SDS011;38317;53.084;6.960;2022-10-28T06:23:38;10.15;;;4.53;;
52386;SDS011;38317;53.084;6.960;2022-10-28T06:26:04;8.00;;;4.50;;
52386;SDS011;38317;53.084;6.960;2022-10-28T06:28:30;9.57;;;4.13;;
52386;SDS011;38317;53.084;6.960;2022-10-28T06:31:03;12.30;;;4.78;;
52386;SDS011;38317;53.084;6.960;2022-10-28T06:33:30;13.48;;;5.18;;
52386;SDS011;38317;53.084;6.960;2022-10-28T06:35:59;9.77;;;4.65;;
52386;SDS011;38317;53.084;6.960;2022-10-28T06:38:25;7.85;;;4.35;;
52386;SDS011;38317;53.084;6.960;2022-10-28T06:40:52;9.55;;;4.18;;
52386;SDS011;38317;53.084;6.960;2022-10-28T06:43:18;9.27;;;4.10;;
52386;SDS011;38317;53.084;6.960;2022-10-28T06:45:43;7.80;;;4.07;;
52386;SDS011;38317;53.084;6.960;2022-10-28T06:48:17;10.75;;;4.30;;
52386;SDS011;38317;53.084;6.960;2022-10-28T06:50:43;11.82;;;4.50;;
52386;SDS011;38317;53.084;6.960;2022-10-28T06:53:09;13.07;;;4.80;;
52386;SDS011;38317;53.084;6.960;2022-10-28T06:55:34;8.93;;;4.18;;
52386;SDS011;38317;53.084;6.960;2022-10-28T06:58:00;9.60;;;4.53;;
52386;SDS011;38317;53.084;6.960;2022-10-28T07:00:27;12.02;;;4.30;;
52386;SDS011;38317;53.084;6.960;2022-10-28T07:02:54;9.43;;;4.05;;
52386;SDS011;38317;53.084;6.960;2022-10-28T07:05:20;9.73;;;4.35;;
52386;SDS011;38317;53.084;6.960;2022-10-28T07:07:47;11.10;;;4.50;;
52386;SDS011;38317;53.084;6.960;2022-10-28T07:10:13;9.52;;;4.60;;
52386;SDS011;38317;53.084;6.960;2022-10-28T07:12:39;13.45;;;5.05;;
52386;SDS011;38317;53.084;6.960;2022-10-28T07:15:05;9.48;;;4.20;;
52386;SDS011;38317;53.084;6.960;2022-10-28T07:17:31;11.50;;;4.82;;
52386;SDS011;38317;53.084;6.960;2022-10-28T07:19:57;11.07;;;4.45;;
52386;SDS011;38317;53.084;6.960;2022-10-28T07:22:23;10.77;;;4.82;;
52386;SDS011;38317;53.084;6.960;2022-10-28T07:24:49;9.30;;;4.68;;
52386;SDS011;38317;53.084;6.960;2022-10-28T07:27:15;8.80;;;5.00;;
52386;SDS011;38317;53.084;6.960;2022-10-28T07:29:41;8.82;;;4.57;;
52386;SDS011;38317;53.084;6.960;2022-10-28T07:32:06;7.88;;;4.22;;
52386;SDS011;38317;53.084;6.960;2022-10-28T07:34:32;9.02;;;4.65;;
52386;SDS011;38317;53.084;6.960;2022-10-28T07:36:58;11.25;;;4.68;;
52386;SDS011;38317;53.084;6.960;2022-10-28T07:39:23;10.60;;;4.93;;
52386;SDS011;38317;53.084;6.960;2022-10-28T07:41:49;8.80;;;4.55;;
52386;SDS011;38317;53.084;6.960;2022-10-28T07:44:15;10.35;;;4.93;;
52386;SDS011;38317;53.084;6.960;2022-10-28T07:46:41;11.23;;;4.53;;
52386;SDS011;38317;53.084;6.960;2022-10-28T07:49:07;9.27;;;4.70;;
52386;SDS011;38317;53.084;6.960;2022-10-28T07:51:32;13.18;;;5.13;;
52386;SDS011;38317;53.084;6.960;2022-10-28T07:53:59;13.50;;;5.53;;
52386;SDS011;38317;53.084;6.960;2022-10-28T07:56:25;10.30;;;4.72;;
52386;SDS011;38317;53.084;6.960;2022-10-28T07:58:51;10.18;;;4.65;;
52386;SDS011;38317;53.084;6.960;2022-10-28T08:01:17;11.88;;;4.68;;
52386;SDS011;38317;53.084;6.960;2022-10-28T08:03:44;8.45;;;4.50;;
52386;SDS011;38317;53.084;6.960;2022-10-28T08:06:15;9.02;;;4.57;;
52386;SDS011;38317;53.084;6.960;2022-10-28T08:08:44;11.60;;;4.82;;
52386;SDS011;38317;53.084;6.960;2022-10-28T08:11:12;9.35;;;4.15;;
52386;SDS011;38317;53.084;6.960;2022-10-28T08:13:49;8.98;;;4.68;;
52386;SDS011;38317;53.084;6.960;2022-10-28T08:16:16;9.00;;;4.47;;
52386;SDS011;38317;53.084;6.960;2022-10-28T08:18:41;9.48;;;4.38;;
52386;SDS011;38317;53.084;6.960;2022-10-28T08:21:09;9.15;;;4.60;;
52386;SDS011;38317;53.084;6.960;2022-10-28T08:23:35;8.50;;;4.40;;
52386;SDS011;38317;53.084;6.960;2022-10-28T08:26:02;10.52;;;4.50;;
52386;SDS011;38317;53.084;6.960;2022-10-28T08:28:29;10.60;;;4.55;;
52386;SDS011;38317;53.084;6.960;2022-10-28T08:31:04;13.98;;;4.50;;
52386;SDS011;38317;53.084;6.960;2022-10-28T08:33:33;11.50;;;5.03;;
52386;SDS011;38317;53.084;6.960;2022-10-28T08:35:59;11.57;;;4.68;;
52386;SDS011;38317;53.084;6.960;2022-10-28T08:38:25;9.23;;;4.47;;
52386;SDS011;38317;53.084;6.960;2022-10-28T08:46:17;12.93;;;5.13;;
52386;SDS011;38317;53.084;6.960;2022-10-28T08:48:56;10.00;;;3.97;;
52386;SDS011;38317;53.084;6.960;2022-10-28T08:54:44;8.35;;;3.90;;
52386;SDS011;38317;53.084;6.960;2022-10-28T08:57:16;10.20;;;4.15;;
52386;SDS011;38317;53.084;6.960;2022-10-28T08:59:45;9.23;;;4.05;;
52386;SDS011;38317;53.084;6.960;2022-10-28T09:02:18;9.07;;;3.70;;
52386;SDS011;38317;53.084;6.960;2022-10-28T09:04:46;9.05;;;3.63;;
52386;SDS011;38317;53.084;6.960;2022-10-28T09:07:43;10.88;;;3.83;;
52386;SDS011;38317;53.084;6.960;2022-10-28T09:10:09;10.35;;;4.03;;
52386;SDS011;38317;53.084;6.960;2022-10-28T09:15:33;7.80;;;3.10;;
52386;SDS011;38317;53.084;6.960;2022-10-28T09:21:34;12.30;;;3.80;;
52386;SDS011;38317;53.084;6.960;2022-10-28T09:24:12;9.18;;;3.15;;
52386;SDS011;38317;53.084;6.960;2022-10-28T09:26:54;7.18;;;2.92;;
52386;SDS011;38317;53.084;6.960;2022-10-28T09:32:25;8.30;;;3.33;;
52386;SDS011;38317;53.084;6.960;2022-10-28T09:35:12;9.15;;;3.53;;
52386;SDS011;38317;53.084;6.960;2022-10-28T09:37:44;9.63;;;3.97;;
52386;SDS011;38317;53.084;6.960;2022-10-28T09:40:20;7.85;;;3.20;;
52386;SDS011;38317;53.084;6.960;2022-10-28T09:45:20;10.25;;;3.00;;
52386;SDS011;38317;53.084;6.960;2022-10-28T09:48:04;13.68;;;3.45;;
52386;SDS011;38317;53.084;6.960;2022-10-28T09:50:53;13.57;;;3.60;;
52386;SDS011;38317;53.084;6.960;2022-10-28T09:56:17;12.93;;;4.32;;
52386;SDS011;38317;53.084;6.960;2022-10-28T09:58:44;6.65;;;2.90;;
52386;SDS011;38317;53.084;6.960;2022-10-28T10:01:11;7.07;;;3.00;;
52386;SDS011;38317;53.084;6.960;2022-10-28T10:03:38;8.00;;;3.08;;
52386;SDS011;38317;53.084;6.960;2022-10-28T10:06:11;9.20;;;3.15;;
52386;SDS011;38317;53.084;6.960;2022-10-28T10:08:39;10.00;;;2.83;;
52386;SDS011;38317;53.084;6.960;2022-10-28T10:11:10;7.72;;;3.03;;
52386;SDS011;38317;53.084;6.960;2022-10-28T10:13:44;10.63;;;3.00;;
52386;SDS011;38317;53.084;6.960;2022-10-28T10:16:16;7.90;;;2.92;;
52386;SDS011;38317;53.084;6.960;2022-10-28T10:18:46;7.90;;;2.90;;
52386;SDS011;38317;53.084;6.960;2022-10-28T10:21:16;9.80;;;3.20;;
52386;SDS011;38317;53.084;6.960;2022-10-28T10:23:44;8.15;;;3.10;;
52386;SDS011;38317;53.084;6.960;2022-10-28T10:26:13;9.63;;;2.85;;
52386;SDS011;38317;53.084;6.960;2022-10-28T10:28:44;6.18;;;2.67;;
52386;SDS011;38317;53.084;6.960;2022-10-28T10:31:19;9.50;;;3.38;;
52386;SDS011;38317;53.084;6.960;2022-10-28T10:33:54;9.25;;;2.78;;
52386;SDS011;38317;53.084;6.960;2022-10-28T10:36:24;9.50;;;2.97;;
52386;SDS011;38317;53.084;6.960;2022-10-28T10:38:56;8.65;;;2.92;;
52386;SDS011;38317;53.084;6.960;2022-10-28T10:41:36;6.65;;;2.63;;
52386;SDS011;38317;53.084;6.960;2022-10-28T10:46:45;6.75;;;2.60;;
52386;SDS011;38317;53.084;6.960;2022-10-28T10:49:34;11.43;;;3.13;;
52386;SDS011;38317;53.084;6.960;2022-10-28T10:52:01;6.60;;;2.45;;
52386;SDS011;38317;53.084;6.960;2022-10-28T10:54:39;5.75;;;2.38;;
52386;SDS011;38317;53.084;6.960;2022-10-28T10:59:47;9.35;;;3.35;;
52386;SDS011;38317;53.084;6.960;2022-10-28T11:02:22;5.00;;;2.10;;
52386;SDS011;38317;53.084;6.960;2022-10-28T11:04:50;7.10;;;2.72;;
52386;SDS011;38317;53.084;6.960;2022-10-28T11:07:17;8.82;;;2.55;;
52386;SDS011;38317;53.084;6.960;2022-10-28T11:09:45;11.50;;;2.88;;
52386;SDS011;38317;53.084;6.960;2022-10-28T11:12:32;7.78;;;2.58;;
52386;SDS011;38317;53.084;6.960;2022-10-28T11:17:41;7.35;;;2.80;;
52386;SDS011;38317;53.084;6.960;2022-10-28T11:20:57;10.43;;;2.90;;
52386;SDS011;38317;53.084;6.960;2022-10-28T11:26:18;8.27;;;3.00;;
52386;SDS011;38317;53.084;6.960;2022-10-28T11:34:33;11.57;;;3.38;;
52386;SDS011;38317;53.084;6.960;2022-10-28T11:39:47;12.27;;;3.70;;
52386;SDS011;38317;53.084;6.960;2022-10-28T11:48:38;11.00;;;3.22;;
52386;SDS011;38317;53.084;6.960;2022-10-28T11:56:33;9.77;;;3.10;;
52386;SDS011;38317;53.084;6.960;2022-10-28T11:59:03;11.15;;;3.25;;
52386;SDS011;38317;53.084;6.960;2022-10-28T12:05:00;8.07;;;2.60;;
52386;SDS011;38317;53.084;6.960;2022-10-28T12:21:26;8.20;;;2.85;;
52386;SDS011;38317;53.084;6.960;2022-10-28T12:23:57;11.18;;;2.67;;
52386;SDS011;38317;53.084;6.960;2022-10-28T12:29:03;7.00;;;2.53;;
52386;SDS011;38317;53.084;6.960;2022-10-28T12:31:37;8.33;;;2.80;;
52386;SDS011;38317;53.084;6.960;2022-10-28T12:34:11;12.63;;;2.67;;
52386;SDS011;38317;53.084;6.960;2022-10-28T12:36:50;8.18;;;2.75;;
52386;SDS011;38317;53.084;6.960;2022-10-28T12:39:32;8.90;;;2.65;;
52386;SDS011;38317;53.084;6.960;2022-10-28T12:42:04;8.32;;;2.60;;
52386;SDS011;38317;53.084;6.960;2022-10-28T12:44:40;7.18;;;2.45;;
52386;SDS011;38317;53.084;6.960;2022-10-28T12:53:11;9.23;;;2.70;;
52386;SDS011;38317;53.084;6.960;2022-10-28T12:55:58;12.18;;;3.20;;
52386;SDS011;38317;53.084;6.960;2022-10-28T12:58:34;8.82;;;2.90;;
52386;SDS011;38317;53.084;6.960;2022-10-28T13:01:15;10.10;;;2.47;;
52386;SDS011;38317;53.084;6.960;2022-10-28T13:03:43;9.05;;;2.95;;
52386;SDS011;38317;53.084;6.960;2022-10-28T13:25:56;7.95;;;2.60;;
52386;SDS011;38317;53.084;6.960;2022-10-28T13:28:26;11.77;;;2.47;;
52386;SDS011;38317;53.084;6.960;2022-10-28T13:30:58;9.32;;;2.80;;
52386;SDS011;38317;53.084;6.960;2022-10-28T13:33:27;7.40;;;2.50;;
52386;SDS011;38317;53.084;6.960;2022-10-28T13:36:05;8.25;;;2.70;;
52386;SDS011;38317;53.084;6.960;2022-10-28T13:38:34;8.00;;;2.88;;
52386;SDS011;38317;53.084;6.960;2022-10-28T13:49:35;11.35;;;2.70;;
52386;SDS011;38317;53.084;6.960;2022-10-28T13:59:53;9.45;;;2.72;;
52386;SDS011;38317;53.084;6.960;2022-10-28T14:02:35;14.05;;;3.78;;
52386;SDS011;38317;53.084;6.960;2022-10-28T14:05:10;9.93;;;2.85;;
52386;SDS011;38317;53.084;6.960;2022-10-28T14:08:00;10.32;;;2.80;;
52386;SDS011;38317;53.084;6.960;2022-10-28T14:10:29;7.60;;;2.60;;
52386;SDS011;38317;53.084;6.960;2022-10-28T14:15:31;10.85;;;4.57;;
52386;SDS011;38317;53.084;6.960;2022-10-28T14:18:00;23.23;;;9.32;;
52386;SDS011;38317;53.084;6.960;2022-10-28T14:20:37;25.38;;;9.18;;
52386;SDS011;38317;53.084;6.960;2022-10-28T14:33:34;8.80;;;3.17;;
52386;SDS011;38317;53.084;6.960;2022-10-28T14:50:31;10.27;;;2.97;;
52386;SDS011;38317;53.084;6.960;2022-10-28T14:53:04;11.82;;;3.00;;
52386;SDS011;38317;53.084;6.960;2022-10-28T14:55:37;8.68;;;3.15;;
52386;SDS011;38317;53.084;6.960;2022-10-28T14:58:36;7.82;;;2.55;;
52386;SDS011;38317;53.084;6.960;2022-10-28T15:04:16;11.32;;;2.72;;
52386;SDS011;38317;53.084;6.960;2022-10-28T15:06:43;12.55;;;3.45;;
52386;SDS011;38317;53.084;6.960;2022-10-28T15:09:15;8.02;;;2.97;;
52386;SDS011;38317;53.084;6.960;2022-10-28T15:11:45;11.27;;;2.95;;
52386;SDS011;38317;53.084;6.960;2022-10-28T15:14:22;12.27;;;2.70;;
52386;SDS011;38317;53.084;6.960;2022-10-28T15:16:50;9.98;;;2.95;;
52386;SDS011;38317;53.084;6.960;2022-10-28T15:19:18;9.52;;;2.92;;
52386;SDS011;38317;53.084;6.960;2022-10-28T15:27:50;12.00;;;3.00;;
52386;SDS011;38317;53.084;6.960;2022-10-28T15:30:18;8.93;;;2.78;;
52386;SDS011;38317;53.084;6.960;2022-10-28T15:32:47;10.98;;;3.40;;
52386;SDS011;38317;53.084;6.960;2022-10-28T15:37:53;11.27;;;3.22;;
52386;SDS011;38317;53.084;6.960;2022-10-28T15:40:21;11.02;;;3.35;;
52386;SDS011;38317;53.084;6.960;2022-10-28T15:42:58;10.85;;;2.45;;
52386;SDS011;38317;53.084;6.960;2022-10-28T15:45:30;9.95;;;2.55;;
52386;SDS011;38317;53.084;6.960;2022-10-28T15:47:57;9.35;;;2.60;;
52386;SDS011;38317;53.084;6.960;2022-10-28T15:50:26;7.18;;;2.22;;
52386;SDS011;38317;53.084;6.960;2022-10-28T15:53:18;11.60;;;2.60;;
52386;SDS011;38317;53.084;6.960;2022-10-28T15:56:07;9.35;;;2.95;;
52386;SDS011;38317;53.084;6.960;2022-10-28T15:58:45;14.93;;;2.67;;
52386;SDS011;38317;53.084;6.960;2022-10-28T16:04:49;7.30;;;2.50;;
52386;SDS011;38317;53.084;6.960;2022-10-28T16:06:51;9.88;;;3.33;;
52386;SDS011;38317;53.084;6.960;2022-10-28T16:12:13;12.63;;;3.30;;
52386;SDS011;38317;53.084;6.960;2022-10-28T16:14:55;10.73;;;3.17;;
52386;SDS011;38317;53.084;6.960;2022-10-28T16:17:25;12.77;;;3.05;;
52386;SDS011;38317;53.084;6.960;2022-10-28T16:19:55;7.53;;;2.88;;
52386;SDS011;38317;53.084;6.960;2022-10-28T16:22:24;13.95;;;3.40;;
52386;SDS011;38317;53.084;6.960;2022-10-28T16:24:52;12.43;;;3.67;;
52386;SDS011;38317;53.084;6.960;2022-10-28T16:27:20;9.68;;;3.35;;
52386;SDS011;38317;53.084;6.960;2022-10-28T16:29:47;10.30;;;2.90;;
52386;SDS011;38317;53.084;6.960;2022-10-28T16:32:14;11.85;;;4.05;;
52386;SDS011;38317;53.084;6.960;2022-10-28T16:34:41;12.27;;;4.05;;
52386;SDS011;38317;53.084;6.960;2022-10-28T16:37:20;11.32;;;3.30;;
52386;SDS011;38317;53.084;6.960;2022-10-28T16:39:49;10.50;;;2.70;;
52386;SDS011;38317;53.084;6.960;2022-10-28T16:42:15;12.73;;;3.22;;
52386;SDS011;38317;53.084;6.960;2022-10-28T16:44:42;9.85;;;3.33;;
52386;SDS011;38317;53.084;6.960;2022-10-28T16:47:11;9.27;;;3.05;;
52386;SDS011;38317;53.084;6.960;2022-10-28T16:49:39;10.25;;;3.47;;
52386;SDS011;38317;53.084;6.960;2022-10-28T16:52:12;11.95;;;2.65;;
52386;SDS011;38317;53.084;6.960;2022-10-28T16:54:40;8.75;;;2.88;;
52386;SDS011;38317;53.084;6.960;2022-10-28T16:57:06;14.13;;;3.28;;
52386;SDS011;38317;53.084;6.960;2022-10-28T16:59:32;10.18;;;2.97;;
52386;SDS011;38317;53.084;6.960;2022-10-28T17:01:58;8.70;;;3.10;;
52386;SDS011;38317;53.084;6.960;2022-10-28T17:04:24;10.43;;;3.53;;
52386;SDS011;38317;53.084;6.960;2022-10-28T17:06:50;9.55;;;3.00;;
52386;SDS011;38317;53.084;6.960;2022-10-28T17:09:15;10.68;;;3.53;;
52386;SDS011;38317;53.084;6.960;2022-10-28T17:11:41;9.25;;;3.08;;
52386;SDS011;38317;53.084;6.960;2022-10-28T17:14:07;9.20;;;3.13;;
52386;SDS011;38317;53.084;6.960;2022-10-28T17:16:33;9.27;;;3.50;;
52386;SDS011;38317;53.084;6.960;2022-10-28T17:19:00;11.25;;;3.58;;
52386;SDS011;38317;53.084;6.960;2022-10-28T17:21:25;10.52;;;3.28;;
52386;SDS011;38317;53.084;6.960;2022-10-28T17:23:51;10.30;;;3.15;;
52386;SDS011;38317;53.084;6.960;2022-10-28T17:26:17;7.07;;;3.15;;
52386;SDS011;38317;53.084;6.960;2022-10-28T17:28:43;9.43;;;3.10;;
52386;SDS011;38317;53.084;6.960;2022-10-28T17:31:09;9.57;;;2.83;;
52386;SDS011;38317;53.084;6.960;2022-10-28T17:33:35;15.65;;;3.95;;
52386;SDS011;38317;53.084;6.960;2022-10-28T17:36:04;10.75;;;3.70;;
52386;SDS011;38317;53.084;6.960;2022-10-28T17:38:32;10.68;;;4.15;;
52386;SDS011;38317;53.084;6.960;2022-10-28T17:40:57;10.85;;;3.53;;
52386;SDS011;38317;53.084;6.960;2022-10-28T17:43:23;14.48;;;3.80;;
52386;SDS011;38317;53.084;6.960;2022-10-28T17:45:49;12.05;;;5.95;;
52386;SDS011;38317;53.084;6.960;2022-10-28T17:48:15;13.25;;;4.25;;
52386;SDS011;38317;53.084;6.960;2022-10-28T17:50:41;14.32;;;3.70;;
52386;SDS011;38317;53.084;6.960;2022-10-28T17:53:08;12.48;;;3.85;;
52386;SDS011;38317;53.084;6.960;2022-10-28T17:55:34;10.52;;;3.17;;
52386;SDS011;38317;53.084;6.960;2022-10-28T17:58:00;10.95;;;3.55;;
52386;SDS011;38317;53.084;6.960;2022-10-28T18:00:25;11.38;;;3.95;;
52386;SDS011;38317;53.084;6.960;2022-10-28T18:02:55;12.85;;;3.95;;
52386;SDS011;38317;53.084;6.960;2022-10-28T18:05:21;12.70;;;3.60;;
52386;SDS011;38317;53.084;6.960;2022-10-28T18:07:46;15.30;;;3.30;;
52386;SDS011;38317;53.084;6.960;2022-10-28T18:10:12;11.63;;;3.15;;
52386;SDS011;38317;53.084;6.960;2022-10-28T18:12:40;12.80;;;4.30;;
52386;SDS011;38317;53.084;6.960;2022-10-28T18:15:06;9.63;;;3.38;;
52386;SDS011;38317;53.084;6.960;2022-10-28T18:17:33;12.23;;;3.72;;
52386;SDS011;38317;53.084;6.960;2022-10-28T18:20:00;10.95;;;3.63;;
52386;SDS011;38317;53.084;6.960;2022-10-28T18:22:26;13.95;;;4.65;;
52386;SDS011;38317;53.084;6.960;2022-10-28T18:24:52;9.60;;;3.38;;
52386;SDS011;38317;53.084;6.960;2022-10-28T18:27:19;8.75;;;3.80;;
52386;SDS011;38317;53.084;6.960;2022-10-28T18:29:44;10.38;;;4.13;;
52386;SDS011;38317;53.084;6.960;2022-10-28T18:32:10;10.75;;;3.25;;